Terminal Aerodrome Forecast
Issued by NWS

Home | Current Version | Previous Version | Text Only | Print | Product List | Glossary On
Versions: 1 2 3 4 5 6 7 8 9 10 11 12 13 14 15 16 17 18 19 20
000
FTAK31 PAJN 302328
TAFAPG
TAF
PAPG 302328Z 3100/3124 VRB05KT P6SM VCSH SCT025 BKN035 OVC050
      TEMPO 3100/3104 VRB04KT 6SM -SHRA BR BKN025 OVC035
     FM310400 12012KT 6SM -RA SCT025 OVC035 WS020/14040KT
     FM310700 12012G20KT 4SM -RA BR BKN020 OVC030 WS020/15045KT
      AMD LTD TO CLD VIS AND WIND 3106/3115=

USA.gov is the U.S. government's official web portal to all federal, state and local government web resources and services.